CheckWX is a tool to help pilots better visualize weather data.  It is not intended as a substitute for an official pre-flight weather briefing.

09:10:34 UTC

KLKV METAR
Lake County Airport
Lakeview, Oregon, USA
Current

18 mins ago

KLKV 210853Z AUTO VRB04KT 10SM CLR 04/03 A3019 RMK AO2 SLP225 T00390028 53005
Observed
Sep-21 @ 08:53 UTC
Wind
  • Variable at 4 KTS
Visibility
10 SM
Flight Rules
VFR
Cloud Levels
  • Clear skies
Temperature
C / 39°F
Dewpoint
C / 37°F
Humidity
93%
Altimeter
30.19" Hg
Pressure
1022.32 hPa
Previous

1 hour ago

KLKV 210753Z AUTO 30005KT 10SM CLR 04/03 A3019 RMK AO2 SLP225 T00390028 401500033
Observed
Sep-21 @ 07:53 UTC
Wind
  • 300° at 5 KTS
Visibility
10 SM
Flight Rules
VFR
Cloud Levels
  • Clear skies
Temperature
C / 39°F
Dewpoint
C / 37°F
Humidity
93%
Altimeter
30.19" Hg
Pressure
1022.32 hPa
Previous

2 hours ago

KLKV 210653Z AUTO 33008KT 10SM CLR 06/04 A3018 RMK AO2 SLP218 T00560044
Observed
Sep-21 @ 06:53 UTC
Wind
  • 330° at 8 KTS
Visibility
10 SM
Flight Rules
VFR
Cloud Levels
  • Clear skies
Temperature
C / 43°F
Dewpoint
C / 39°F
Humidity
87%
Altimeter
30.18" Hg
Pressure
1022.02 hPa